Time,TemperatureF,DewpointF,PressureIn,WindDirection,WindDirectionDegrees,WindSpeedMPH,WindSpeedGustMPH,Humidity,HourlyPrecipIn,Conditions,Clouds,dailyrainin,SoftwareType,DateUTC
2013-05-08 00:10:00,40.5,24.0,29.61,East,101,5.0,16.0,52,0.00,,,0.00,weatherlink.com 1.10,2013-05-08 07:10:00,
2013-05-08 00:25:00,39.9,26.0,29.60,WNW,289,6.0,19.0,58,0.00,,,0.00,weatherlink.com 1.10,2013-05-08 07:25:00,
2013-05-08 00:40:00,39.8,27.0,29.60,WSW,245,11.0,15.0,60,0.00,,,0.00,weatherlink.com 1.10,2013-05-08 07:40:00,
2013-05-08 00:55:00,40.3,24.0,29.59,WSW,239,16.0,17.0,53,0.00,,,0.00,weatherlink.com 1.10,2013-05-08 07:55:00,
2013-05-08 01:10:00,40.2,22.0,29.59,SW,225,7.0,12.0,48,0.00,,,0.00,weatherlink.com 1.10,2013-05-08 08:10:00,
2013-05-08 01:25:00,39.9,26.0,29.58,West,264,7.0,16.0,57,0.00,,,0.00,weatherlink.com 1.10,2013-05-08 08:25:00,
2013-05-08 01:40:00,39.6,28.0,29.58,WNW,282,4.0,15.0,63,0.00,,,0.00,weatherlink.com 1.10,2013-05-08 08:40:00,
2013-05-08 01:55:00,39.0,30.0,29.59,SW,221,9.0,12.0,71,0.00,,,0.00,weatherlink.com 1.10,2013-05-08 08:55:00,
2013-05-08 02:10:00,38.4,32.0,29.59,SW,215,3.0,11.0,77,0.00,,,0.00,weatherlink.com 1.10,2013-05-08 09:10:00,
2013-05-08 02:25:00,38.4,33.0,29.59,WNW,302,11.0,16.0,80,0.00,,,0.00,weatherlink.com 1.10,2013-05-08 09:25:00,
2013-05-08 02:40:00,38.2,32.0,29.59,WSW,252,4.0,10.0,78,0.00,,,0.00,weatherlink.com 1.10,2013-05-08 09:40:00,
2013-05-08 02:55:00,37.5,32.0,29.59,SW,236,4.0,8.0,80,0.00,,,0.00,weatherlink.com 1.10,2013-05-08 09:55:00,
2013-05-08 03:10:00,37.9,31.0,29.59,SW,221,2.0,5.0,77,0.00,,,0.00,weatherlink.com 1.10,2013-05-08 10:10:00,
2013-05-08 03:25:00,36.9,33.0,29.59,West,260,5.0,6.0,86,0.00,,,0.00,weatherlink.com 1.10,2013-05-08 10:25:00,
2013-05-08 03:40:00,37.7,28.0,29.59,SSW,200,4.0,11.0,68,0.00,,,0.00,weatherlink.com 1.10,2013-05-08 10:40:00,
2013-05-08 03:55:00,37.9,29.0,29.59,West,260,5.0,8.0,70,0.00,,,0.00,weatherlink.com 1.10,2013-05-08 10:55:00,
2013-05-08 04:10:00,36.6,33.0,29.59,West,269,5.0,9.0,88,0.00,,,0.00,weatherlink.com 1.10,2013-05-08 11:10:00,
2013-05-08 04:25:00,38.7,24.0,29.60,SW,226,6.0,10.0,56,0.00,,,0.00,weatherlink.com 1.10,2013-05-08 11:25:00,
2013-05-08 04:40:00,38.8,25.0,29.60,SW,224,3.0,11.0,59,0.00,,,0.00,weatherlink.com 1.10,2013-05-08 11:40:00,
2013-05-08 04:55:00,38.0,27.0,29.60,West,259,2.0,6.0,66,0.00,,,0.00,weatherlink.com 1.10,2013-05-08 11:55:00,
2013-05-08 05:10:00,37.1,31.0,29.61,SE,133,0.0,1.0,77,0.00,,,0.00,weatherlink.com 1.10,2013-05-08 12:10:00,
2013-05-08 05:25:00,36.6,31.0,29.61,SSW,200,2.0,3.0,79,0.00,,,0.00,weatherlink.com 1.10,2013-05-08 12:25:00,
2013-05-08 05:40:00,37.0,28.0,29.61,SW,222,5.0,7.0,69,0.00,,,0.00,weatherlink.com 1.10,2013-05-08 12:40:00,
2013-05-08 05:55:00,38.5,29.0,29.61,WSW,242,3.0,5.0,70,0.00,,,0.00,weatherlink.com 1.10,2013-05-08 12:55:00,
2013-05-08 06:10:00,39.4,26.0,29.62,SSE,156,3.0,7.0,58,0.00,,,0.00,weatherlink.com 1.10,2013-05-08 13:10:00,
2013-05-08 06:25:00,40.8,23.0,29.63,SSW,198,3.0,8.0,50,0.00,,,0.00,weatherlink.com 1.10,2013-05-08 13:25:00,
2013-05-08 06:40:00,41.5,30.0,29.63,NNE,20,1.0,2.0,64,0.00,,,0.00,weatherlink.com 1.10,2013-05-08 13:40:00,
2013-05-08 06:55:00,42.1,34.0,29.63,East,84,4.0,5.0,73,0.00,,,0.00,weatherlink.com 1.10,2013-05-08 13:55:00,
2013-05-08 07:10:00,41.4,34.0,29.63,NE,46,3.0,5.0,76,0.00,,,0.00,weatherlink.com 1.10,2013-05-08 14:10:00,
2013-05-08 07:25:00,41.0,35.0,29.64,NE,56,5.0,6.0,78,0.00,,,0.00,weatherlink.com 1.10,2013-05-08 14:25:00,
2013-05-08 07:40:00,41.0,35.0,29.64,East,85,1.0,6.0,80,0.00,,,0.00,weatherlink.com 1.10,2013-05-08 14:40:00,
2013-05-08 07:55:00,42.5,36.0,29.64,NNE,19,5.0,5.0,77,0.00,,,0.00,weatherlink.com 1.10,2013-05-08 14:55:00,
2013-05-08 08:10:00,43.5,36.0,29.64,ENE,76,2.0,5.0,76,0.00,,,0.00,weatherlink.com 1.10,2013-05-08 15:10:00,
2013-05-08 08:25:00,42.3,36.0,29.64,NE,53,2.0,5.0,77,0.00,,,0.00,weatherlink.com 1.10,2013-05-08 15:25:00,
2013-05-08 08:40:00,43.2,35.0,29.65,NNW,330,2.0,5.0,74,0.00,,,0.00,weatherlink.com 1.10,2013-05-08 15:40:00,
2013-05-08 08:56:00,44.5,37.0,29.65,NW,305,1.0,5.0,74,0.00,,,0.00,weatherlink.com 1.10,2013-05-08 15:56:00,
2013-05-08 09:10:00,45.7,37.0,29.65,NW,305,3.0,4.0,71,0.00,,,0.00,weatherlink.com 1.10,2013-05-08 16:10:00,
2013-05-08 09:25:00,46.9,37.0,29.65,NW,316,0.0,4.0,69,0.00,,,0.00,weatherlink.com 1.10,2013-05-08 16:25:00,
2013-05-08 09:40:00,45.7,37.0,29.65,West,263,2.0,4.0,71,0.00,,,0.00,weatherlink.com 1.10,2013-05-08 16:40:00,
2013-05-08 09:55:00,45.9,36.0,29.65,West,276,0.0,5.0,69,0.00,,,0.00,weatherlink.com 1.10,2013-05-08 16:55:00,
2013-05-08 10:10:00,47.5,37.0,29.65,NW,319,2.0,5.0,67,0.00,,,0.00,weatherlink.com 1.10,2013-05-08 17:10:00,
2013-05-08 10:25:00,48.8,37.0,29.65,NE,56,0.0,3.0,64,0.00,,,0.00,weatherlink.com 1.10,2013-05-08 17:25:00,
2013-05-08 10:40:00,51.5,37.0,29.65,East,82,2.0,5.0,59,0.00,,,0.00,weatherlink.com 1.10,2013-05-08 17:40:00,
2013-05-08 10:55:00,52.1,37.0,29.65,NE,42,1.0,4.0,56,0.00,,,0.00,weatherlink.com 1.10,2013-05-08 17:55:00,
2013-05-08 11:10:00,53.2,36.0,29.65,ENE,64,2.0,5.0,52,0.00,,,0.00,weatherlink.com 1.10,2013-05-08 18:10:00,
2013-05-08 11:25:00,53.5,37.0,29.65,WNW,290,0.0,3.0,53,0.00,,,0.00,weatherlink.com 1.10,2013-05-08 18:25:00,
2013-05-08 11:40:00,52.8,37.0,29.65,WNW,298,3.0,6.0,55,0.00,,,0.00,weatherlink.com 1.10,2013-05-08 18:40:00,
2013-05-08 11:55:00,52.4,36.0,29.65,WNW,286,2.0,5.0,55,0.00,,,0.00,weatherlink.com 1.10,2013-05-08 18:55:00,
2013-05-08 12:10:00,52.2,37.0,29.64,West,264,1.0,7.0,56,0.00,,,0.00,weatherlink.com 1.10,2013-05-08 19:10:00,
2013-05-08 12:25:00,52.0,37.0,29.65,NW,325,1.0,6.0,56,0.00,,,0.00,weatherlink.com 1.10,2013-05-08 19:25:00,
2013-05-08 12:40:00,52.6,37.0,29.64,NW,316,2.0,5.0,56,0.00,,,0.00,weatherlink.com 1.10,2013-05-08 19:40:00,
2013-05-08 12:56:00,52.3,35.0,29.65,NNE,29,2.0,4.0,53,0.00,,,0.00,weatherlink.com 1.10,2013-05-08 19:56:00,
2013-05-08 13:11:00,52.6,37.0,29.65,WSW,250,0.0,3.0,55,0.00,,,0.00,weatherlink.com 1.10,2013-05-08 20:11:00,
2013-05-08 13:26:00,52.8,36.0,29.65,North,350,1.0,4.0,54,0.00,,,0.00,weatherlink.com 1.10,2013-05-08 20:26:00,
2013-05-08 13:41:00,54.1,37.0,29.65,SE,131,1.0,5.0,52,0.00,,,0.00,weatherlink.com 1.10,2013-05-08 20:41:00,
2013-05-08 13:56:00,56.4,36.0,29.64,NNE,12,3.0,4.0,47,0.00,,,0.00,weatherlink.com 1.10,2013-05-08 20:56:00,
2013-05-08 14:11:00,57.1,36.0,29.64,NNE,33,0.0,4.0,45,0.00,,,0.00,weatherlink.com 1.10,2013-05-08 21:11:00,
2013-05-08 14:26:00,58.7,31.0,29.63,WNW,288,8.0,8.0,35,0.00,,,0.00,weatherlink.com 1.10,2013-05-08 21:26:00,
2013-05-08 14:41:00,56.9,27.0,29.63,SE,126,4.0,10.0,32,0.00,,,0.00,weatherlink.com 1.10,2013-05-08 21:41:00,
2013-05-08 14:56:00,56.4,25.0,29.63,SW,222,4.0,10.0,30,0.00,,,0.00,weatherlink.com 1.10,2013-05-08 21:56:00,
2013-05-08 15:11:00,55.8,25.0,29.63,SW,218,6.0,10.0,30,0.00,,,0.00,weatherlink.com 1.10,2013-05-08 22:11:00,
2013-05-08 15:26:00,56.2,25.0,29.63,SE,141,1.0,7.0,30,0.00,,,0.00,weatherlink.com 1.10,2013-05-08 22:26:00,
2013-05-08 15:41:00,56.7,24.0,29.63,WNW,290,1.0,11.0,28,0.00,,,0.00,weatherlink.com 1.10,2013-05-08 22:41:00,
2013-05-08 15:56:00,55.3,28.0,29.63,West,270,7.0,9.0,35,0.00,,,0.00,weatherlink.com 1.10,2013-05-08 22:56:00,
2013-05-08 16:11:00,54.4,28.0,29.62,SW,228,11.0,14.0,36,0.00,,,0.00,weatherlink.com 1.10,2013-05-08 23:11:00,
2013-05-08 16:26:00,53.1,29.0,29.62,NW,321,4.0,14.0,39,0.00,,,0.00,weatherlink.com 1.10,2013-05-08 23:26:00,
2013-05-08 16:41:00,52.7,29.0,29.62,NW,310,3.0,9.0,41,0.00,,,0.00,weatherlink.com 1.10,2013-05-08 23:41:00,
2013-05-08 16:56:00,51.2,30.0,29.61,SW,233,10.0,19.0,44,0.00,,,0.00,weatherlink.com 1.10,2013-05-08 23:56:00,
2013-05-08 17:11:00,50.4,30.0,29.61,NW,314,6.0,18.0,46,0.00,,,0.00,weatherlink.com 1.10,2013-05-09 00:11:00,
2013-05-08 17:26:00,50.2,31.0,29.61,SSW,205,6.0,19.0,48,0.00,,,0.00,weatherlink.com 1.10,2013-05-09 00:26:00,
2013-05-08 17:41:00,49.7,32.0,29.61,WSW,238,3.0,13.0,50,0.00,,,0.00,weatherlink.com 1.10,2013-05-09 00:41:00,
2013-05-08 17:56:00,49.1,31.0,29.61,SW,232,9.0,13.0,51,0.00,,,0.00,weatherlink.com 1.10,2013-05-09 00:56:00,
2013-05-08 18:11:00,48.9,29.0,29.61,West,280,11.0,20.0,47,0.00,,,0.00,weatherlink.com 1.10,2013-05-09 01:11:00,
2013-05-08 18:26:00,48.7,29.0,29.61,WSW,258,5.0,17.0,47,0.00,,,0.00,weatherlink.com 1.10,2013-05-09 01:26:00,
2013-05-08 18:41:00,48.4,30.0,29.61,West,274,15.0,20.0,49,0.00,,,0.00,weatherlink.com 1.10,2013-05-09 01:41:00,
2013-05-08 18:56:00,47.9,30.0,29.61,West,279,7.0,15.0,51,0.00,,,0.00,weatherlink.com 1.10,2013-05-09 01:56:00,
2013-05-08 19:11:00,47.6,30.0,29.61,WSW,248,12.0,18.0,51,0.00,,,0.00,weatherlink.com 1.10,2013-05-09 02:11:00,
2013-05-08 19:26:00,47.4,30.0,29.62,West,260,8.0,14.0,51,0.00,,,0.00,weatherlink.com 1.10,2013-05-09 02:26:00,
2013-05-08 19:41:00,47.1,31.0,29.62,WNW,293,10.0,14.0,53,0.00,,,0.00,weatherlink.com 1.10,2013-05-09 02:41:00,
2013-05-08 19:56:00,46.8,31.0,29.63,SW,233,8.0,10.0,54,0.00,,,0.00,weatherlink.com 1.10,2013-05-09 02:56:00,
2013-05-08 20:12:00,47.1,31.0,29.63,SW,215,4.0,12.0,53,0.00,,,0.00,weatherlink.com 1.10,2013-05-09 03:12:00,
2013-05-08 20:27:00,47.1,31.0,29.63,WSW,256,4.0,11.0,53,0.00,,,0.00,weatherlink.com 1.10,2013-05-09 03:27:00,
2013-05-08 20:42:00,46.9,31.0,29.64,SW,231,6.0,9.0,54,0.00,,,0.00,weatherlink.com 1.10,2013-05-09 03:42:00,
2013-05-08 20:57:00,46.8,31.0,29.64,WSW,257,5.0,12.0,55,0.00,,,0.00,weatherlink.com 1.10,2013-05-09 03:57:00,
2013-05-08 21:12:00,46.4,31.0,29.64,West,275,8.0,13.0,56,0.00,,,0.00,weatherlink.com 1.10,2013-05-09 04:12:00,
2013-05-08 21:27:00,46.0,31.0,29.65,SW,224,7.0,12.0,57,0.00,,,0.00,weatherlink.com 1.10,2013-05-09 04:27:00,
2013-05-08 21:42:00,45.8,32.0,29.65,WSW,256,10.0,13.0,58,0.00,,,0.00,weatherlink.com 1.10,2013-05-09 04:42:00,
2013-05-08 21:57:00,45.7,31.0,29.64,SW,229,8.0,14.0,58,0.00,,,0.00,weatherlink.com 1.10,2013-05-09 04:57:00,
2013-05-08 22:12:00,45.6,31.0,29.65,NW,308,2.0,12.0,58,0.00,,,0.00,weatherlink.com 1.10,2013-05-09 05:12:00,
2013-05-08 22:27:00,45.5,32.0,29.65,SW,233,3.0,13.0,59,0.00,,,0.00,weatherlink.com 1.10,2013-05-09 05:27:00,
2013-05-08 22:42:00,45.3,32.0,29.65,WSW,252,3.0,11.0,61,0.00,,,0.00,weatherlink.com 1.10,2013-05-09 05:42:00,
2013-05-08 22:57:00,45.2,32.0,29.65,West,263,7.0,11.0,61,0.00,,,0.00,weatherlink.com 1.10,2013-05-09 05:57:00,
2013-05-08 23:12:00,45.2,33.0,29.65,NNW,333,3.0,13.0,62,0.00,,,0.00,weatherlink.com 1.10,2013-05-09 06:12:00,
2013-05-08 23:27:00,45.0,33.0,29.64,West,265,9.0,18.0,62,0.00,,,0.00,weatherlink.com 1.10,2013-05-09 06:27:00,
2013-05-08 23:42:00,45.0,33.0,29.64,West,264,3.0,11.0,62,0.00,,,0.00,weatherlink.com 1.10,2013-05-09 06:42:00,
2013-05-08 23:57:00,44.7,33.0,29.64,West,274,3.0,12.0,63,0.00,,,0.00,weatherlink.com 1.10,2013-05-09 06:57:00,